createdAt,value
2018-04-15T00:01:26.026Z,1.40
2018-04-15T00:03:53.810Z,1.50
2018-04-15T00:06:20.938Z,1.50
2018-04-15T00:08:48.044Z,1.50
2018-04-15T00:11:15.204Z,1.30
2018-04-15T00:13:42.231Z,1.20
2018-04-15T00:16:09.239Z,1.40
2018-04-15T00:18:36.274Z,1.50
2018-04-15T00:21:04.164Z,1.43
2018-04-15T00:23:31.212Z,1.67
2018-04-15T00:25:58.264Z,1.30
2018-04-15T00:28:25.383Z,1.43
2018-04-15T00:30:53.145Z,1.43
2018-04-15T00:33:20.931Z,1.40
2018-04-15T00:35:48.703Z,1.10
2018-04-15T00:38:15.723Z,1.40
2018-04-15T00:40:43.830Z,1.50
2018-04-15T00:43:10.822Z,1.30
2018-04-15T00:45:37.894Z,1.90
2018-04-15T00:48:05.667Z,1.30
2018-04-15T00:50:32.729Z,1.30
2018-04-15T00:52:59.749Z,1.30
2018-04-15T00:55:27.511Z,1.40
2018-04-15T00:57:54.536Z,1.30
2018-04-15T01:00:21.580Z,1.40
2018-04-15T01:02:48.587Z,1.20
2018-04-15T01:05:15.657Z,1.47
2018-04-15T01:07:42.675Z,1.30
2018-04-15T01:10:10.556Z,1.30
2018-04-15T01:12:37.605Z,1.50
2018-04-15T01:15:04.751Z,1.30
2018-04-15T01:17:31.813Z,1.50
2018-04-15T01:19:58.860Z,1.40
2018-04-15T01:22:25.860Z,1.40
2018-04-15T01:24:53.648Z,1.57
2018-04-15T01:27:20.726Z,1.40
2018-04-15T01:29:47.765Z,1.40
2018-04-15T01:32:14.790Z,1.30
2018-04-15T01:34:42.547Z,1.27
2018-04-15T01:37:10.300Z,1.20
2018-04-15T01:39:37.284Z,1.30
2018-04-15T01:42:04.286Z,1.23
2018-04-15T01:44:31.255Z,1.23
2018-04-15T01:46:59.405Z,1.30
2018-04-15T01:49:27.445Z,1.20
2018-04-15T01:51:54.564Z,1.13
2018-04-15T01:54:21.551Z,1.67
2018-04-15T01:56:48.730Z,1.40
2018-04-15T01:59:15.749Z,1.30
2018-04-15T02:01:44.154Z,1.00
2018-04-15T02:04:11.216Z,1.10
2018-04-15T02:06:39.037Z,1.27
2018-04-15T02:09:06.065Z,1.50
2018-04-15T02:11:33.120Z,1.20
2018-04-15T02:14:00.183Z,1.03
2018-04-15T02:16:27.155Z,1.10
2018-04-15T02:18:54.209Z,1.10
2018-04-15T02:21:22.757Z,1.10
2018-04-15T02:23:50.357Z,1.30
2018-04-15T02:26:18.136Z,1.10
2018-04-15T02:28:45.169Z,1.47
2018-04-15T02:31:12.960Z,1.30
2018-04-15T02:33:40.000Z,1.13
2018-04-15T02:36:06.974Z,1.37
2018-04-15T02:38:34.028Z,1.30
2018-04-15T02:41:01.060Z,1.27
2018-04-15T02:43:28.094Z,1.27
2018-04-15T02:45:55.185Z,1.30
2018-04-15T02:48:22.175Z,1.23
2018-04-15T02:50:49.243Z,1.10
2018-04-15T02:53:16.339Z,1.00
2018-04-15T02:55:43.446Z,1.13
2018-04-15T02:58:10.544Z,1.17
2018-04-15T03:00:37.574Z,1.17
2018-04-15T03:03:04.618Z,1.07
2018-04-15T03:05:31.621Z,1.30
2018-04-15T03:07:58.674Z,1.23
2018-04-15T03:10:25.799Z,1.20
2018-04-15T03:12:53.584Z,1.10
2018-04-15T03:15:20.643Z,1.20
2018-04-15T03:17:47.711Z,1.03
2018-04-15T03:20:14.765Z,1.20
2018-04-15T03:22:41.811Z,1.23
2018-04-15T03:25:08.830Z,1.00
2018-04-15T03:27:35.863Z,1.20
2018-04-15T03:30:03.991Z,1.10
2018-04-15T03:32:31.028Z,1.20
2018-04-15T03:34:58.039Z,1.43
2018-04-15T03:37:25.091Z,1.20
2018-04-15T03:39:52.107Z,1.30
2018-04-15T03:42:19.883Z,1.20
2018-04-15T03:44:47.745Z,1.17
2018-04-15T03:47:15.533Z,1.40
2018-04-15T03:49:42.586Z,1.50
2018-04-15T03:52:09.620Z,1.40
2018-04-15T03:54:36.705Z,1.27
2018-04-15T03:57:03.915Z,1.13
2018-04-15T03:59:31.071Z,1.20
2018-04-15T04:01:58.123Z,1.20
2018-04-15T04:04:25.148Z,1.33
2018-04-15T04:06:52.178Z,1.20
2018-04-15T04:09:19.960Z,1.43
2018-04-15T04:11:47.771Z,1.10
2018-04-15T04:14:14.826Z,1.20
2018-04-15T04:16:41.883Z,1.20
2018-04-15T04:19:26.973Z,1.20
2018-04-15T04:22:12.091Z,1.20
2018-04-15T04:24:57.430Z,1.27
2018-04-15T04:27:25.358Z,1.10
2018-04-15T04:29:52.331Z,1.30
2018-04-15T04:32:19.291Z,1.50
2018-04-15T04:34:46.333Z,1.40
2018-04-15T04:37:13.303Z,1.10
2018-04-15T04:39:41.061Z,1.30
2018-04-15T04:42:08.766Z,1.20
2018-04-15T04:44:35.741Z,1.27
2018-04-15T04:47:02.738Z,1.10
2018-04-15T04:49:29.790Z,1.20
2018-04-15T04:51:57.575Z,1.17
2018-04-15T04:54:24.628Z,1.70
2018-04-15T04:56:51.671Z,1.10
2018-04-15T04:59:18.727Z,1.50
2018-04-15T05:01:45.805Z,1.30
2018-04-15T05:04:13.588Z,1.40
2018-04-15T05:06:40.643Z,1.57
2018-04-15T05:09:07.688Z,1.40
2018-04-15T05:11:34.715Z,1.43
2018-04-15T05:14:02.518Z,3.77
2018-04-15T05:16:29.478Z,3.60
2018-04-15T05:18:56.471Z,1.50
2018-04-15T05:21:23.451Z,1.30
2018-04-15T05:23:50.461Z,1.50
2018-04-15T05:26:18.188Z,1.57
2018-04-15T05:28:45.168Z,1.50
2018-04-15T05:31:12.215Z,1.80
2018-04-15T05:33:39.241Z,1.87
2018-04-15T05:36:06.324Z,1.77
2018-04-15T05:38:33.365Z,1.70
2018-04-15T05:41:01.159Z,1.30
2018-04-15T05:43:28.290Z,1.53
2018-04-15T05:45:56.066Z,1.30
2018-04-15T05:48:23.118Z,1.20
2018-04-15T05:50:50.165Z,1.40
2018-04-15T05:53:17.226Z,1.70
2018-04-15T05:55:44.279Z,1.53
2018-04-15T05:58:11.366Z,1.80
2018-04-15T06:00:39.190Z,1.70
2018-04-15T06:03:06.283Z,2.20
2018-04-15T06:05:33.363Z,1.63
2018-04-15T06:08:00.393Z,1.27
2018-04-15T06:10:28.183Z,1.40
2018-04-15T06:12:55.195Z,1.40
2018-04-15T06:15:23.029Z,1.20
2018-04-15T06:17:50.084Z,1.27
2018-04-15T06:20:17.138Z,1.40
2018-04-15T06:22:44.181Z,1.40
2018-04-15T06:25:11.223Z,1.53
2018-04-15T06:27:38.264Z,1.50
2018-04-15T06:30:05.351Z,1.57
2018-04-15T06:32:32.398Z,1.60
2018-04-15T06:35:00.185Z,1.50
2018-04-15T06:37:27.221Z,1.50
2018-04-15T06:39:55.024Z,1.50
2018-04-15T06:42:22.048Z,1.47
2018-04-15T06:44:49.178Z,2.30
2018-04-15T06:47:16.930Z,1.93
2018-04-15T06:49:43.973Z,1.80
2018-04-15T06:52:11.029Z,1.77
2018-04-15T06:54:38.035Z,1.60
2018-04-15T06:57:05.088Z,1.40
2018-04-15T06:59:32.128Z,1.37
2018-04-15T07:01:59.255Z,2.00
2018-04-15T07:04:26.474Z,1.63
2018-04-15T07:06:54.282Z,1.70
2018-04-15T07:09:21.422Z,1.63
2018-04-15T07:11:48.498Z,1.57
2018-04-15T07:14:15.599Z,1.83
2018-04-15T07:16:43.421Z,2.80
2018-04-15T07:19:10.536Z,2.10
2018-04-15T07:21:37.821Z,2.90
2018-04-15T07:24:04.900Z,3.77
2018-04-15T07:26:32.710Z,4.50
2018-04-15T07:28:59.764Z,8.43
2018-04-15T07:31:26.779Z,10.27
2018-04-15T07:33:54.535Z,6.70
2018-04-15T07:36:22.373Z,4.10
2018-04-15T07:38:49.438Z,3.03
2018-04-15T07:41:17.360Z,2.50
2018-04-15T07:43:44.445Z,2.03
2018-04-15T07:46:11.567Z,2.37
2018-04-15T07:48:38.700Z,2.30
2018-04-15T07:51:05.800Z,2.00
2018-04-15T07:53:32.880Z,2.00
2018-04-15T07:55:59.920Z,1.90
2018-04-15T07:58:26.904Z,2.00
2018-04-15T08:00:53.928Z,5.00
2018-04-15T08:03:20.907Z,2.13
2018-04-15T08:05:47.891Z,2.00
2018-04-15T08:08:14.869Z,1.80
2018-04-15T08:10:41.888Z,2.50
2018-04-15T08:13:09.600Z,2.13
2018-04-15T08:15:36.635Z,2.50
2018-04-15T08:18:03.644Z,2.53
2018-04-15T08:20:31.411Z,2.70
2018-04-15T08:22:59.257Z,2.47
2018-04-15T08:25:26.240Z,2.63
2018-04-15T08:27:53.266Z,2.80
2018-04-15T08:30:21.013Z,2.90
2018-04-15T08:32:48.310Z,2.73
2018-04-15T08:35:15.366Z,2.83
2018-04-15T08:37:42.493Z,2.60
2018-04-15T08:40:10.330Z,2.77
2018-04-15T08:42:37.373Z,3.00
2018-04-15T08:45:04.506Z,3.77
2018-04-15T08:47:31.558Z,2.90
2018-04-15T08:49:58.633Z,2.93
2018-04-15T08:52:25.745Z,2.93
2018-04-15T08:54:52.818Z,3.97
2018-04-15T08:57:20.693Z,3.80
2018-04-15T08:59:47.797Z,3.57
2018-04-15T09:02:14.848Z,3.80
2018-04-15T09:04:41.948Z,3.40
2018-04-15T09:07:09.737Z,3.33
2018-04-15T09:09:36.777Z,3.23
2018-04-15T09:12:03.865Z,3.20
2018-04-15T09:14:30.968Z,3.00
2018-04-15T09:16:58.778Z,2.87
2018-04-15T09:19:25.850Z,2.73
2018-04-15T09:21:52.910Z,3.37
2018-04-15T09:24:19.989Z,3.13
2018-04-15T09:26:47.042Z,2.70
2018-04-15T09:29:14.072Z,2.80
2018-04-15T09:31:42.554Z,3.00
2018-04-15T09:34:09.615Z,2.77
2018-04-15T09:36:36.722Z,2.90
2018-04-15T09:39:03.972Z,3.13
2018-04-15T09:41:31.072Z,3.00
2018-04-15T09:43:58.156Z,2.97
2018-04-15T09:46:25.311Z,2.60
2018-04-15T09:48:52.403Z,2.50
2018-04-15T09:51:19.514Z,3.40
2018-04-15T09:53:46.609Z,3.80
2018-04-15T09:56:13.689Z,3.90
2018-04-15T09:58:40.792Z,3.50
2018-04-15T10:01:08.673Z,2.83
2018-04-15T10:03:35.783Z,3.10
2018-04-15T10:06:02.888Z,2.90
2018-04-15T10:08:29.958Z,2.93
2018-04-15T10:10:57.030Z,5.83
2018-04-15T10:13:24.871Z,6.90
2018-04-15T10:15:51.965Z,4.10
2018-04-15T10:18:19.780Z,3.10
2018-04-15T10:20:46.985Z,3.83
2018-04-15T10:23:14.806Z,3.60
2018-04-15T10:25:41.885Z,2.73
2018-04-15T10:28:08.946Z,3.40
2018-04-15T10:30:36.851Z,6.00
2018-04-15T10:33:03.939Z,6.53
2018-04-15T10:35:31.026Z,7.60
2018-04-15T10:37:58.112Z,6.83
2018-04-15T10:40:25.172Z,5.40
2018-04-15T10:42:52.267Z,5.07
2018-04-15T10:45:19.357Z,3.47
2018-04-15T10:47:46.405Z,3.57
2018-04-15T10:50:13.471Z,4.17
2018-04-15T10:52:40.553Z,4.80
2018-04-15T10:55:07.603Z,4.73
2018-04-15T10:57:34.685Z,4.90
2018-04-15T11:00:01.748Z,6.30
2018-04-15T11:02:28.818Z,5.37
2018-04-15T11:04:55.846Z,11.70
2018-04-15T11:07:22.891Z,11.13
2018-04-15T11:09:49.963Z,9.13
2018-04-15T11:12:17.011Z,6.00
2018-04-15T11:14:44.846Z,4.57
2018-04-15T11:17:11.890Z,4.07
2018-04-15T11:19:38.942Z,3.60
2018-04-15T11:22:06.031Z,3.70
2018-04-15T11:24:33.816Z,3.80
2018-04-15T11:27:01.623Z,3.67
2018-04-15T11:29:29.628Z,4.30
2018-04-15T11:31:57.423Z,4.37
2018-04-15T11:34:24.519Z,4.50
2018-04-15T11:36:51.603Z,4.13
2018-04-15T11:39:19.417Z,3.63
2018-04-15T11:41:46.495Z,4.10
2018-04-15T11:44:13.601Z,3.50
2018-04-15T11:46:40.673Z,3.83
2018-04-15T11:49:07.741Z,3.87
2018-04-15T11:51:34.889Z,4.03
2018-04-15T11:54:01.911Z,4.17
2018-04-15T11:56:28.998Z,4.23
2018-04-15T11:58:56.852Z,3.57
2018-04-15T12:01:24.680Z,3.57
2018-04-15T12:03:51.770Z,4.10
2018-04-15T12:06:18.817Z,4.23
2018-04-15T12:08:46.677Z,3.77
2018-04-15T12:11:13.777Z,4.10
2018-04-15T12:13:40.802Z,6.50
2018-04-15T12:16:08.603Z,6.03
2018-04-15T12:18:35.693Z,5.90
2018-04-15T12:21:02.768Z,5.73
2018-04-15T12:23:29.836Z,5.80
2018-04-15T12:25:56.911Z,5.90
2018-04-15T12:28:23.984Z,5.00
2018-04-15T12:30:51.079Z,5.37
2018-04-15T12:33:18.125Z,5.07
2018-04-15T12:35:45.217Z,7.97
2018-04-15T12:38:13.059Z,11.37
2018-04-15T12:40:40.149Z,19.77
2018-04-15T12:43:07.217Z,7.50
2018-04-15T12:45:34.324Z,6.17
2018-04-15T12:48:01.385Z,7.30
2018-04-15T12:50:28.516Z,26.10
2018-04-15T12:52:55.628Z,21.93
2018-04-15T12:55:22.976Z,24.23
2018-04-15T12:57:50.109Z,7.20
2018-04-15T13:00:17.262Z,4.53
2018-04-15T13:02:45.154Z,4.70
2018-04-15T13:05:12.242Z,5.93
2018-04-15T13:07:39.326Z,5.93
2018-04-15T13:10:06.384Z,5.80
2018-04-15T13:12:33.419Z,5.47
2018-04-15T13:15:00.521Z,5.17
2018-04-15T13:17:27.618Z,4.30
2018-04-15T13:19:55.448Z,4.93
2018-04-15T13:22:22.499Z,4.50
2018-04-15T13:24:49.553Z,4.50
2018-04-15T13:27:16.625Z,4.40
2018-04-15T13:29:44.458Z,4.73
2018-04-15T13:32:11.529Z,4.70
2018-04-15T13:34:39.393Z,4.43
2018-04-15T13:37:06.444Z,5.20
2018-04-15T13:39:33.551Z,4.47
2018-04-15T13:42:00.620Z,4.87
2018-04-15T13:44:27.688Z,4.93
2018-04-15T13:46:54.729Z,4.80
2018-04-15T13:49:22.536Z,5.00
2018-04-15T13:51:49.592Z,3.90
2018-04-15T13:54:16.690Z,4.17
2018-04-15T13:56:43.788Z,4.20
2018-04-15T13:59:10.874Z,3.60
2018-04-15T14:01:37.973Z,4.33
2018-04-15T14:04:05.064Z,4.37
2018-04-15T14:06:32.146Z,4.10
2018-04-15T14:08:59.946Z,4.13
2018-04-15T14:11:27.066Z,4.33
2018-04-15T14:13:54.878Z,3.67
2018-04-15T14:16:21.933Z,3.83
2018-04-15T14:18:49.008Z,4.97
2018-04-15T14:21:16.166Z,4.50
2018-04-15T14:23:43.282Z,4.67
2018-04-15T14:26:10.402Z,4.33
2018-04-15T14:28:37.513Z,4.40
2018-04-15T14:31:04.593Z,4.10
2018-04-15T14:33:31.678Z,4.40
2018-04-15T14:35:58.779Z,4.50
2018-04-15T14:38:25.832Z,7.17
2018-04-15T14:40:52.954Z,6.60
2018-04-15T14:43:20.039Z,10.27
2018-04-15T14:45:47.149Z,10.60
2018-04-15T14:48:14.256Z,4.53
2018-04-15T14:50:41.359Z,5.20
2018-04-15T14:53:09.174Z,4.50
2018-04-15T14:55:36.267Z,4.27
2018-04-15T14:58:03.357Z,4.23
2018-04-15T15:00:30.466Z,4.80
2018-04-15T15:02:58.344Z,6.70
2018-04-15T15:05:25.561Z,7.67
2018-04-15T15:07:52.724Z,5.27
2018-04-15T15:10:19.931Z,4.50
2018-04-15T15:12:47.014Z,6.30
2018-04-15T15:15:14.101Z,5.13
2018-04-15T15:17:41.185Z,4.97
2018-04-15T15:20:08.329Z,4.90
2018-04-15T15:22:35.316Z,5.70
2018-04-15T15:25:02.354Z,4.80
2018-04-15T15:27:29.418Z,4.57
2018-04-15T15:29:57.357Z,5.43
2018-04-15T15:32:24.434Z,4.63
2018-04-15T15:34:51.429Z,5.23
2018-04-15T15:37:18.461Z,5.00
2018-04-15T15:39:45.686Z,4.60
2018-04-15T15:42:16.211Z,5.63
2018-04-15T15:44:45.579Z,5.43
2018-04-15T15:47:12.681Z,4.80
2018-04-15T15:49:40.651Z,4.47
2018-04-15T15:52:08.471Z,4.83
2018-04-15T15:54:35.611Z,5.67
2018-04-15T15:57:02.621Z,5.13
2018-04-15T15:59:29.701Z,7.97
2018-04-15T16:01:56.683Z,6.03
2018-04-15T16:04:23.721Z,5.00
2018-04-15T16:06:50.796Z,4.93
2018-04-15T16:09:18.646Z,5.13
2018-04-15T16:11:45.662Z,4.60
2018-04-15T16:14:12.812Z,4.13
2018-04-15T16:16:39.976Z,4.80
2018-04-15T16:19:07.003Z,4.47
2018-04-15T16:21:33.998Z,4.67
2018-04-15T16:24:03.238Z,4.67
2018-04-15T16:26:30.661Z,5.30
2018-04-15T16:28:58.471Z,5.80
2018-04-15T16:31:25.541Z,5.87
2018-04-15T16:33:52.578Z,4.70
2018-04-15T16:36:19.618Z,4.80
2018-04-15T16:38:46.623Z,4.50
2018-04-15T16:41:14.444Z,6.27
2018-04-15T16:43:41.444Z,5.53
2018-04-15T16:46:08.493Z,5.27
2018-04-15T16:48:35.543Z,4.23
2018-04-15T16:51:02.551Z,4.90
2018-04-15T16:53:29.605Z,4.30
2018-04-15T16:55:57.395Z,4.20
2018-04-15T16:58:24.643Z,4.20
2018-04-15T17:00:52.416Z,4.33
2018-04-15T17:03:19.463Z,4.40
2018-04-15T17:05:46.536Z,4.13
2018-04-15T17:08:13.593Z,4.90
2018-04-15T17:10:40.677Z,4.13
2018-04-15T17:13:08.468Z,4.93
2018-04-15T17:15:35.532Z,4.67
2018-04-15T17:18:02.545Z,4.53
2018-04-15T17:20:30.342Z,4.20
2018-04-15T17:22:57.419Z,4.40
2018-04-15T17:25:24.448Z,4.73
2018-04-15T17:27:51.502Z,4.10
2018-04-15T17:30:18.550Z,3.90
2018-04-15T17:32:45.552Z,4.80
2018-04-15T17:35:12.594Z,4.30
2018-04-15T17:37:40.352Z,4.87
2018-04-15T17:40:08.128Z,5.00
2018-04-15T17:42:35.854Z,5.27
2018-04-15T17:45:02.903Z,5.17
2018-04-15T17:47:29.904Z,6.20
2018-04-15T17:49:56.887Z,5.63
2018-04-15T17:52:23.948Z,5.70
2018-04-15T17:54:50.965Z,5.27
2018-04-15T17:57:18.772Z,4.47
2018-04-15T17:59:45.793Z,4.57
2018-04-15T18:02:12.810Z,4.43
2018-04-15T18:04:39.823Z,5.63
2018-04-15T18:07:07.625Z,4.87
2018-04-15T18:09:34.608Z,5.00
2018-04-15T18:12:01.641Z,4.53
2018-04-15T18:14:28.638Z,4.80
2018-04-15T18:16:56.358Z,4.27
2018-04-15T18:19:23.413Z,4.67
2018-04-15T18:21:50.445Z,4.83
2018-04-15T18:24:17.423Z,4.33
2018-04-15T18:26:44.461Z,4.80
2018-04-15T18:29:11.529Z,4.87
2018-04-15T18:31:39.362Z,4.00
2018-04-15T18:34:12.378Z,4.97
2018-04-15T18:36:40.144Z,4.67
2018-04-15T18:39:08.881Z,4.83
2018-04-15T18:41:35.941Z,4.50
2018-04-15T18:44:02.941Z,5.00
2018-04-15T18:46:30.761Z,4.70
2018-04-15T18:48:57.844Z,4.83
2018-04-15T18:51:25.599Z,9.97
2018-04-15T18:53:52.752Z,5.67
2018-04-15T18:56:21.520Z,6.47
2018-04-15T18:58:48.624Z,4.70
2018-04-15T19:01:15.682Z,5.10
2018-04-15T19:03:43.534Z,5.30
2018-04-15T19:06:10.612Z,4.70
2018-04-15T19:08:37.821Z,4.70
2018-04-15T19:11:05.591Z,5.07
2018-04-15T19:13:32.658Z,4.60
2018-04-15T19:15:59.764Z,4.80
2018-04-15T19:18:26.864Z,4.90
2018-04-15T19:20:53.975Z,5.43
2018-04-15T19:23:20.987Z,4.87
2018-04-15T19:25:48.014Z,4.90
2018-04-15T19:28:15.428Z,4.90
2018-04-15T19:30:43.245Z,4.53
2018-04-15T19:33:10.314Z,4.83
2018-04-15T19:35:37.424Z,5.23
2018-04-15T19:38:04.847Z,4.70
2018-04-15T19:40:33.582Z,5.30
2018-04-15T19:43:00.636Z,4.70
2018-04-15T19:45:27.700Z,5.63
2018-04-15T19:47:54.841Z,7.00
2018-04-15T19:50:22.120Z,6.53
2018-04-15T19:52:50.719Z,6.27
2018-04-15T19:55:17.961Z,5.00
2018-04-15T19:57:46.146Z,5.23
2018-04-15T20:00:14.766Z,6.13
2018-04-15T20:02:41.834Z,5.70
2018-04-15T20:05:08.996Z,5.20
2018-04-15T20:07:36.020Z,6.77
2018-04-15T20:10:03.228Z,5.70
2018-04-15T20:12:30.305Z,4.57
2018-04-15T20:14:57.320Z,5.13
2018-04-15T20:17:25.059Z,4.30
2018-04-15T20:19:52.124Z,4.50
2018-04-15T20:22:19.922Z,5.07
2018-04-15T20:24:46.932Z,6.47
2018-04-15T20:27:14.805Z,6.00
2018-04-15T20:29:42.614Z,6.33
2018-04-15T20:32:09.603Z,4.40
2018-04-15T20:34:37.479Z,4.03
2018-04-15T20:37:04.590Z,4.37
2018-04-15T20:39:31.669Z,4.23
2018-04-15T20:41:58.771Z,4.70
2018-04-15T20:44:25.846Z,6.33
2018-04-15T20:46:52.916Z,4.90
2018-04-15T20:49:20.794Z,6.90
2018-04-15T20:51:48.646Z,6.13
2018-04-15T20:54:16.449Z,6.77
2018-04-15T20:56:43.481Z,6.27
2018-04-15T20:59:10.501Z,6.40
2018-04-15T21:01:37.501Z,9.33
2018-04-15T21:04:04.606Z,8.67
2018-04-15T21:06:32.491Z,9.63
2018-04-15T21:09:00.241Z,10.30
2018-04-15T21:11:27.982Z,10.40
2018-04-15T21:13:55.024Z,10.10
2018-04-15T21:16:22.051Z,8.20
2018-04-15T21:18:49.043Z,9.70
2018-04-15T21:21:16.804Z,9.67
2018-04-15T21:23:44.597Z,7.40
2018-04-15T21:26:11.633Z,7.70
2018-04-15T21:28:39.024Z,8.50
2018-04-15T21:31:06.038Z,9.77
2018-04-15T21:33:33.161Z,8.60
2018-04-15T21:36:00.196Z,7.50
2018-04-15T21:38:27.271Z,8.03
2018-04-15T21:40:54.271Z,6.33
2018-04-15T21:43:21.313Z,6.00
2018-04-15T21:45:48.425Z,6.03
2018-04-15T21:48:15.608Z,5.60
2018-04-15T21:50:42.713Z,5.77
2018-04-15T21:53:10.578Z,5.80
2018-04-15T21:55:37.688Z,6.17
2018-04-15T21:58:04.788Z,5.77
2018-04-15T22:00:31.938Z,6.40
2018-04-15T22:02:59.988Z,7.53
2018-04-15T22:05:27.933Z,8.97
2018-04-15T22:07:55.013Z,7.77
2018-04-15T22:10:22.093Z,7.00
2018-04-15T22:12:49.345Z,9.73
2018-04-15T22:15:16.471Z,6.33
2018-04-15T22:17:43.535Z,6.50
2018-04-15T22:20:10.590Z,6.30
2018-04-15T22:22:37.680Z,6.00
2018-04-15T22:25:04.793Z,6.63
2018-04-15T22:27:31.958Z,6.70
2018-04-15T22:29:59.003Z,6.87
2018-04-15T22:32:26.056Z,6.70
2018-04-15T22:34:53.142Z,6.47
2018-04-15T22:37:20.934Z,6.27
2018-04-15T22:39:48.051Z,6.30
2018-04-15T22:42:15.113Z,6.33
2018-04-15T22:44:42.951Z,5.87
2018-04-15T22:47:10.004Z,6.00
2018-04-15T22:49:43.130Z,5.53
2018-04-15T22:52:10.176Z,5.60
2018-04-15T22:54:37.256Z,7.10
2018-04-15T22:57:10.417Z,7.10
2018-04-15T22:59:37.517Z,8.20
2018-04-15T23:02:04.623Z,8.20
2018-04-15T23:04:31.653Z,8.00
2018-04-15T23:06:58.728Z,7.37
2018-04-15T23:09:25.798Z,7.70
2018-04-15T23:11:52.917Z,6.67
2018-04-15T23:14:19.941Z,6.80
2018-04-15T23:16:47.001Z,6.73
2018-04-15T23:19:14.039Z,6.03
2018-04-15T23:21:41.086Z,6.63
2018-04-15T23:24:08.139Z,5.73
2018-04-15T23:26:35.228Z,6.17
2018-04-15T23:29:02.277Z,6.00
2018-04-15T23:31:29.318Z,5.17
2018-04-15T23:33:56.331Z,4.43
2018-04-15T23:36:23.360Z,4.97
2018-04-15T23:38:51.191Z,5.63
2018-04-15T23:41:18.213Z,6.53
2018-04-15T23:43:45.332Z,6.77
2018-04-15T23:46:12.339Z,6.37
2018-04-15T23:48:39.476Z,5.93
2018-04-15T23:51:06.526Z,6.50
2018-04-15T23:53:33.569Z,6.83
2018-04-15T23:56:00.591Z,6.87
2018-04-15T23:58:27.670Z,5.83
